sensor_id;sensor_type;location;lat;lon;timestamp;temperature;humidity
34985;DHT22;21190;58.750;17.004;2023-02-24T00:01:49;1.00;99.90
34985;DHT22;21190;58.750;17.004;2023-02-24T00:04:27;1.10;99.90
34985;DHT22;21190;58.750;17.004;2023-02-24T00:06:54;1.00;99.90
34985;DHT22;21190;58.750;17.004;2023-02-24T00:09:23;1.00;99.90
34985;DHT22;21190;58.750;17.004;2023-02-24T00:11:54;1.00;99.90
34985;DHT22;21190;58.750;17.004;2023-02-24T00:14:23;1.00;99.90
34985;DHT22;21190;58.750;17.004;2023-02-24T00:16:51;1.00;99.90
34985;DHT22;21190;58.750;17.004;2023-02-24T00:19:21;0.90;99.90
34985;DHT22;21190;58.750;17.004;2023-02-24T00:21:50;0.90;99.90
34985;DHT22;21190;58.750;17.004;2023-02-24T00:24:17;0.90;99.90
34985;DHT22;21190;58.750;17.004;2023-02-24T00:26:44;0.90;99.90
34985;DHT22;21190;58.750;17.004;2023-02-24T00:29:12;1.00;99.90
34985;DHT22;21190;58.750;17.004;2023-02-24T00:31:42;1.00;99.90
34985;DHT22;21190;58.750;17.004;2023-02-24T00:34:10;1.00;99.90
34985;DHT22;21190;58.750;17.004;2023-02-24T00:36:40;1.00;99.90
34985;DHT22;21190;58.750;17.004;2023-02-24T00:39:08;1.10;99.90
34985;DHT22;21190;58.750;17.004;2023-02-24T00:41:38;1.00;99.90
34985;DHT22;21190;58.750;17.004;2023-02-24T00:44:08;1.00;99.90
34985;DHT22;21190;58.750;17.004;2023-02-24T00:46:43;0.90;99.90
34985;DHT22;21190;58.750;17.004;2023-02-24T00:49:15;1.00;99.90
34985;DHT22;21190;58.750;17.004;2023-02-24T00:51:46;1.00;99.90
34985;DHT22;21190;58.750;17.004;2023-02-24T00:54:15;1.00;99.90
34985;DHT22;21190;58.750;17.004;2023-02-24T00:56:45;0.90;99.90
34985;DHT22;21190;58.750;17.004;2023-02-24T00:59:14;0.90;99.90
34985;DHT22;21190;58.750;17.004;2023-02-24T01:01:42;1.00;99.90
34985;DHT22;21190;58.750;17.004;2023-02-24T01:04:12;0.90;99.90
34985;DHT22;21190;58.750;17.004;2023-02-24T01:06:43;0.90;99.90
34985;DHT22;21190;58.750;17.004;2023-02-24T01:09:16;0.80;99.90
34985;DHT22;21190;58.750;17.004;2023-02-24T01:11:46;0.80;99.90
34985;DHT22;21190;58.750;17.004;2023-02-24T01:14:33;0.80;99.90
34985;DHT22;21190;58.750;17.004;2023-02-24T01:17:02;0.80;99.90
34985;DHT22;21190;58.750;17.004;2023-02-24T01:19:31;0.70;99.90
34985;DHT22;21190;58.750;17.004;2023-02-24T01:22:00;0.70;99.90
34985;DHT22;21190;58.750;17.004;2023-02-24T01:24:30;0.70;99.90
34985;DHT22;21190;58.750;17.004;2023-02-24T01:26:58;0.70;99.90
34985;DHT22;21190;58.750;17.004;2023-02-24T01:29:25;0.70;99.90
34985;DHT22;21190;58.750;17.004;2023-02-24T01:31:52;0.70;99.90
34985;DHT22;21190;58.750;17.004;2023-02-24T01:34:24;0.80;99.90
34985;DHT22;21190;58.750;17.004;2023-02-24T01:36:52;0.80;99.90
34985;DHT22;21190;58.750;17.004;2023-02-24T01:39:19;0.80;99.90
34985;DHT22;21190;58.750;17.004;2023-02-24T01:41:49;0.70;99.90
34985;DHT22;21190;58.750;17.004;2023-02-24T01:46:48;0.70;99.90
34985;DHT22;21190;58.750;17.004;2023-02-24T01:49:38;0.70;99.90
34985;DHT22;21190;58.750;17.004;2023-02-24T01:52:09;0.70;99.90
34985;DHT22;21190;58.750;17.004;2023-02-24T01:57:23;0.70;99.90
34985;DHT22;21190;58.750;17.004;2023-02-24T01:59:53;0.70;99.90
34985;DHT22;21190;58.750;17.004;2023-02-24T02:02:27;0.70;99.90
34985;DHT22;21190;58.750;17.004;2023-02-24T02:05:03;0.70;99.90
34985;DHT22;21190;58.750;17.004;2023-02-24T02:07:31;0.70;99.90
34985;DHT22;21190;58.750;17.004;2023-02-24T02:09:59;0.70;99.90
34985;DHT22;21190;58.750;17.004;2023-02-24T02:12:31;0.70;99.90
34985;DHT22;21190;58.750;17.004;2023-02-24T02:15:03;0.70;99.90
34985;DHT22;21190;58.750;17.004;2023-02-24T02:17:53;0.70;99.90
34985;DHT22;21190;58.750;17.004;2023-02-24T02:34:12;0.70;99.90
34985;DHT22;21190;58.750;17.004;2023-02-24T02:37:09;0.70;99.90
34985;DHT22;21190;58.750;17.004;2023-02-24T02:40:00;0.70;99.90
34985;DHT22;21190;58.750;17.004;2023-02-24T02:42:43;0.70;99.90
34985;DHT22;21190;58.750;17.004;2023-02-24T02:45:19;0.70;99.90
34985;DHT22;21190;58.750;17.004;2023-02-24T02:48:11;0.60;99.90
34985;DHT22;21190;58.750;17.004;2023-02-24T02:50:44;0.60;99.90
34985;DHT22;21190;58.750;17.004;2023-02-24T02:55:46;0.60;99.90
34985;DHT22;21190;58.750;17.004;2023-02-24T02:58:20;0.70;99.90
34985;DHT22;21190;58.750;17.004;2023-02-24T03:00:52;0.60;99.90
34985;DHT22;21190;58.750;17.004;2023-02-24T03:03:32;0.70;99.90
34985;DHT22;21190;58.750;17.004;2023-02-24T03:06:14;0.60;99.90
34985;DHT22;21190;58.750;17.004;2023-02-24T03:08:52;0.60;99.90
34985;DHT22;21190;58.750;17.004;2023-02-24T03:11:21;0.60;99.90
34985;DHT22;21190;58.750;17.004;2023-02-24T03:13:50;0.60;99.90
34985;DHT22;21190;58.750;17.004;2023-02-24T03:16:21;0.60;99.90
34985;DHT22;21190;58.750;17.004;2023-02-24T03:19:19;0.60;99.90
34985;DHT22;21190;58.750;17.004;2023-02-24T03:22:02;0.60;99.90
34985;DHT22;21190;58.750;17.004;2023-02-24T03:24:31;0.60;99.90
34985;DHT22;21190;58.750;17.004;2023-02-24T03:27:10;0.60;99.90
34985;DHT22;21190;58.750;17.004;2023-02-24T03:29:46;0.60;99.90
34985;DHT22;21190;58.750;17.004;2023-02-24T03:32:27;0.70;99.90
34985;DHT22;21190;58.750;17.004;2023-02-24T03:35:04;0.60;99.90
34985;DHT22;21190;58.750;17.004;2023-02-24T03:37:35;0.60;99.90
34985;DHT22;21190;58.750;17.004;2023-02-24T03:40:07;0.60;99.90
34985;DHT22;21190;58.750;17.004;2023-02-24T03:42:46;0.60;99.90
34985;DHT22;21190;58.750;17.004;2023-02-24T03:45:15;0.60;99.90
34985;DHT22;21190;58.750;17.004;2023-02-24T03:47:43;0.60;99.90
34985;DHT22;21190;58.750;17.004;2023-02-24T03:50:16;0.60;99.90
34985;DHT22;21190;58.750;17.004;2023-02-24T04:00:57;0.70;99.90
34985;DHT22;21190;58.750;17.004;2023-02-24T04:09:15;0.60;99.90
34985;DHT22;21190;58.750;17.004;2023-02-24T04:12:06;0.60;99.90
34985;DHT22;21190;58.750;17.004;2023-02-24T04:20:06;0.60;99.90
34985;DHT22;21190;58.750;17.004;2023-02-24T04:22:52;0.60;99.90
34985;DHT22;21190;58.750;17.004;2023-02-24T04:25:24;0.50;99.90
34985;DHT22;21190;58.750;17.004;2023-02-24T04:27:54;0.50;99.90
34985;DHT22;21190;58.750;17.004;2023-02-24T04:30:24;0.50;99.90
34985;DHT22;21190;58.750;17.004;2023-02-24T04:32:53;0.50;99.90
34985;DHT22;21190;58.750;17.004;2023-02-24T04:35:24;0.50;99.90
34985;DHT22;21190;58.750;17.004;2023-02-24T04:37:52;0.60;99.90
34985;DHT22;21190;58.750;17.004;2023-02-24T04:40:21;0.60;99.90
34985;DHT22;21190;58.750;17.004;2023-02-24T04:42:50;0.60;99.90
34985;DHT22;21190;58.750;17.004;2023-02-24T04:45:28;0.60;99.90
34985;DHT22;21190;58.750;17.004;2023-02-24T04:47:57;0.60;99.90
34985;DHT22;21190;58.750;17.004;2023-02-24T04:50:32;0.60;99.90
34985;DHT22;21190;58.750;17.004;2023-02-24T04:53:02;0.60;99.90
34985;DHT22;21190;58.750;17.004;2023-02-24T04:55:35;0.60;99.90
34985;DHT22;21190;58.750;17.004;2023-02-24T04:58:14;0.60;99.90
34985;DHT22;21190;58.750;17.004;2023-02-24T05:00:50;0.60;99.90
34985;DHT22;21190;58.750;17.004;2023-02-24T05:03:19;0.60;99.90
34985;DHT22;21190;58.750;17.004;2023-02-24T05:05:57;0.60;99.90
34985;DHT22;21190;58.750;17.004;2023-02-24T05:08:27;0.60;99.90
34985;DHT22;21190;58.750;17.004;2023-02-24T05:10:56;0.60;99.90
34985;DHT22;21190;58.750;17.004;2023-02-24T05:13:27;0.60;99.90
34985;DHT22;21190;58.750;17.004;2023-02-24T05:15:56;0.60;99.90
34985;DHT22;21190;58.750;17.004;2023-02-24T05:18:24;0.50;99.90
34985;DHT22;21190;58.750;17.004;2023-02-24T05:20:55;0.60;99.90
34985;DHT22;21190;58.750;17.004;2023-02-24T05:23:43;0.50;99.90
34985;DHT22;21190;58.750;17.004;2023-02-24T05:26:13;0.50;99.90
34985;DHT22;21190;58.750;17.004;2023-02-24T05:28:45;0.50;99.90
34985;DHT22;21190;58.750;17.004;2023-02-24T05:31:17;0.50;99.90
34985;DHT22;21190;58.750;17.004;2023-02-24T05:33:47;0.50;99.90
34985;DHT22;21190;58.750;17.004;2023-02-24T05:36:17;0.50;99.90
34985;DHT22;21190;58.750;17.004;2023-02-24T05:38:45;0.50;99.90
34985;DHT22;21190;58.750;17.004;2023-02-24T05:41:15;0.50;99.90
34985;DHT22;21190;58.750;17.004;2023-02-24T05:43:44;0.40;99.90
34985;DHT22;21190;58.750;17.004;2023-02-24T05:46:23;0.50;99.90
34985;DHT22;21190;58.750;17.004;2023-02-24T05:48:59;0.40;99.90
34985;DHT22;21190;58.750;17.004;2023-02-24T05:51:30;0.50;99.90
34985;DHT22;21190;58.750;17.004;2023-02-24T05:54:05;0.40;99.90
34985;DHT22;21190;58.750;17.004;2023-02-24T05:56:34;0.50;99.90
34985;DHT22;21190;58.750;17.004;2023-02-24T05:59:03;0.50;99.90
34985;DHT22;21190;58.750;17.004;2023-02-24T06:01:32;0.50;99.90
34985;DHT22;21190;58.750;17.004;2023-02-24T06:04:05;0.50;99.90
34985;DHT22;21190;58.750;17.004;2023-02-24T06:06:33;0.50;99.90
34985;DHT22;21190;58.750;17.004;2023-02-24T06:09:06;0.50;99.90
34985;DHT22;21190;58.750;17.004;2023-02-24T06:11:37;0.50;99.90
34985;DHT22;21190;58.750;17.004;2023-02-24T06:14:04;0.50;99.90
34985;DHT22;21190;58.750;17.004;2023-02-24T06:16:38;0.50;99.90
34985;DHT22;21190;58.750;17.004;2023-02-24T06:19:08;0.50;99.90
34985;DHT22;21190;58.750;17.004;2023-02-24T06:21:37;0.50;99.90
34985;DHT22;21190;58.750;17.004;2023-02-24T06:24:12;0.60;99.90
34985;DHT22;21190;58.750;17.004;2023-02-24T06:26:44;0.60;99.90
34985;DHT22;21190;58.750;17.004;2023-02-24T06:29:16;0.60;99.90
34985;DHT22;21190;58.750;17.004;2023-02-24T06:31:43;0.60;99.90
34985;DHT22;21190;58.750;17.004;2023-02-24T06:34:11;0.50;99.90
34985;DHT22;21190;58.750;17.004;2023-02-24T06:36:39;0.60;99.90
34985;DHT22;21190;58.750;17.004;2023-02-24T06:39:08;0.60;99.90
34985;DHT22;21190;58.750;17.004;2023-02-24T06:41:39;0.60;99.90
34985;DHT22;21190;58.750;17.004;2023-02-24T06:44:08;0.60;99.90
34985;DHT22;21190;58.750;17.004;2023-02-24T06:46:35;0.60;99.90
34985;DHT22;21190;58.750;17.004;2023-02-24T06:49:03;0.60;99.90
34985;DHT22;21190;58.750;17.004;2023-02-24T06:51:29;0.70;99.90
34985;DHT22;21190;58.750;17.004;2023-02-24T06:53:56;0.60;99.90
34985;DHT22;21190;58.750;17.004;2023-02-24T06:56:26;0.60;99.90
34985;DHT22;21190;58.750;17.004;2023-02-24T06:58:54;0.70;99.90
34985;DHT22;21190;58.750;17.004;2023-02-24T07:01:26;0.70;99.90
34985;DHT22;21190;58.750;17.004;2023-02-24T07:03:57;0.70;99.90
34985;DHT22;21190;58.750;17.004;2023-02-24T07:06:35;0.80;99.90
34985;DHT22;21190;58.750;17.004;2023-02-24T07:09:16;0.80;99.90
34985;DHT22;21190;58.750;17.004;2023-02-24T07:11:46;0.70;99.90
34985;DHT22;21190;58.750;17.004;2023-02-24T07:14:19;0.70;99.90
34985;DHT22;21190;58.750;17.004;2023-02-24T07:16:47;0.80;99.90
34985;DHT22;21190;58.750;17.004;2023-02-24T07:19:23;0.80;99.90
34985;DHT22;21190;58.750;17.004;2023-02-24T07:21:54;0.80;99.90
34985;DHT22;21190;58.750;17.004;2023-02-24T07:24:27;0.80;99.90
34985;DHT22;21190;58.750;17.004;2023-02-24T07:27:14;0.80;99.90
34985;DHT22;21190;58.750;17.004;2023-02-24T07:29:54;0.90;99.90
34985;DHT22;21190;58.750;17.004;2023-02-24T07:32:22;0.90;99.90
34985;DHT22;21190;58.750;17.004;2023-02-24T07:34:49;0.90;99.90
34985;DHT22;21190;58.750;17.004;2023-02-24T07:37:16;0.90;99.90
34985;DHT22;21190;58.750;17.004;2023-02-24T07:39:45;0.90;99.90
34985;DHT22;21190;58.750;17.004;2023-02-24T07:42:13;0.80;99.90
34985;DHT22;21190;58.750;17.004;2023-02-24T07:44:40;0.80;99.90
34985;DHT22;21190;58.750;17.004;2023-02-24T07:47:10;0.90;99.90
34985;DHT22;21190;58.750;17.004;2023-02-24T07:49:38;0.90;99.90
34985;DHT22;21190;58.750;17.004;2023-02-24T07:52:07;0.90;99.90
34985;DHT22;21190;58.750;17.004;2023-02-24T07:54:34;0.90;99.90
34985;DHT22;21190;58.750;17.004;2023-02-24T07:57:01;0.90;99.90
34985;DHT22;21190;58.750;17.004;2023-02-24T07:59:30;0.90;99.90
34985;DHT22;21190;58.750;17.004;2023-02-24T08:01:58;0.90;99.90
34985;DHT22;21190;58.750;17.004;2023-02-24T08:04:29;0.90;99.90
34985;DHT22;21190;58.750;17.004;2023-02-24T08:06:56;0.90;99.90
34985;DHT22;21190;58.750;17.004;2023-02-24T08:09:30;1.00;99.90
34985;DHT22;21190;58.750;17.004;2023-02-24T08:12:33;1.00;99.90
34985;DHT22;21190;58.750;17.004;2023-02-24T08:15:01;1.00;99.90
34985;DHT22;21190;58.750;17.004;2023-02-24T08:17:43;1.00;99.90
34985;DHT22;21190;58.750;17.004;2023-02-24T08:20:13;1.00;99.90
34985;DHT22;21190;58.750;17.004;2023-02-24T08:22:42;1.10;99.90
34985;DHT22;21190;58.750;17.004;2023-02-24T08:25:14;1.10;99.90
34985;DHT22;21190;58.750;17.004;2023-02-24T08:27:47;1.10;99.90
34985;DHT22;21190;58.750;17.004;2023-02-24T08:30:35;1.10;99.90
34985;DHT22;21190;58.750;17.004;2023-02-24T08:33:08;1.10;99.90
34985;DHT22;21190;58.750;17.004;2023-02-24T08:35:38;1.10;99.90
34985;DHT22;21190;58.750;17.004;2023-02-24T08:38:14;1.10;99.90
34985;DHT22;21190;58.750;17.004;2023-02-24T08:40:50;1.10;99.90
34985;DHT22;21190;58.750;17.004;2023-02-24T08:43:28;1.10;99.90
34985;DHT22;21190;58.750;17.004;2023-02-24T08:48:28;1.10;99.90
34985;DHT22;21190;58.750;17.004;2023-02-24T08:51:18;1.10;99.90
34985;DHT22;21190;58.750;17.004;2023-02-24T08:53:51;1.20;99.90
34985;DHT22;21190;58.750;17.004;2023-02-24T08:56:32;1.30;99.90
34985;DHT22;21190;58.750;17.004;2023-02-24T08:59:04;1.30;99.90
34985;DHT22;21190;58.750;17.004;2023-02-24T09:01:38;1.30;99.90
34985;DHT22;21190;58.750;17.004;2023-02-24T09:04:12;1.30;99.90
34985;DHT22;21190;58.750;17.004;2023-02-24T09:06:49;1.30;99.90
34985;DHT22;21190;58.750;17.004;2023-02-24T09:09:21;1.30;99.90
34985;DHT22;21190;58.750;17.004;2023-02-24T09:11:54;1.40;99.90
34985;DHT22;21190;58.750;17.004;2023-02-24T09:14:27;1.40;99.90
34985;DHT22;21190;58.750;17.004;2023-02-24T09:16:57;1.50;99.90
34985;DHT22;21190;58.750;17.004;2023-02-24T09:19:38;1.50;99.90
34985;DHT22;21190;58.750;17.004;2023-02-24T09:22:25;1.40;99.90
34985;DHT22;21190;58.750;17.004;2023-02-24T09:25:12;1.50;99.90
34985;DHT22;21190;58.750;17.004;2023-02-24T09:28:15;1.50;99.90
34985;DHT22;21190;58.750;17.004;2023-02-24T09:30:57;1.60;99.90
34985;DHT22;21190;58.750;17.004;2023-02-24T09:33:30;1.50;99.90
34985;DHT22;21190;58.750;17.004;2023-02-24T09:36:07;1.50;99.90
34985;DHT22;21190;58.750;17.004;2023-02-24T09:38:51;1.60;99.90
34985;DHT22;21190;58.750;17.004;2023-02-24T09:44:48;1.50;99.90
34985;DHT22;21190;58.750;17.004;2023-02-24T09:50:05;1.70;99.90
34985;DHT22;21190;58.750;17.004;2023-02-24T09:52:40;1.70;99.90
34985;DHT22;21190;58.750;17.004;2023-02-24T09:55:16;1.70;99.90
34985;DHT22;21190;58.750;17.004;2023-02-24T10:06:18;1.90;99.90
34985;DHT22;21190;58.750;17.004;2023-02-24T10:11:42;2.10;99.90
34985;DHT22;21190;58.750;17.004;2023-02-24T10:14:25;2.10;99.90
34985;DHT22;21190;58.750;17.004;2023-02-24T10:17:24;2.10;99.90
34985;DHT22;21190;58.750;17.004;2023-02-24T10:20:14;2.10;99.90
34985;DHT22;21190;58.750;17.004;2023-02-24T10:23:02;2.10;99.90
34985;DHT22;21190;58.750;17.004;2023-02-24T10:25:45;2.10;99.90
34985;DHT22;21190;58.750;17.004;2023-02-24T10:28:43;2.10;99.90
34985;DHT22;21190;58.750;17.004;2023-02-24T10:31:16;2.10;99.90
34985;DHT22;21190;58.750;17.004;2023-02-24T10:34:06;2.10;99.90
34985;DHT22;21190;58.750;17.004;2023-02-24T10:36:34;2.10;99.90
34985;DHT22;21190;58.750;17.004;2023-02-24T10:39:12;2.00;99.90
34985;DHT22;21190;58.750;17.004;2023-02-24T10:41:46;1.90;99.90
34985;DHT22;21190;58.750;17.004;2023-02-24T10:44:23;1.90;99.90
34985;DHT22;21190;58.750;17.004;2023-02-24T10:47:07;2.00;99.90
34985;DHT22;21190;58.750;17.004;2023-02-24T10:49:49;1.90;99.90
34985;DHT22;21190;58.750;17.004;2023-02-24T10:52:41;2.00;99.90
34985;DHT22;21190;58.750;17.004;2023-02-24T11:00:56;1.90;99.90
34985;DHT22;21190;58.750;17.004;2023-02-24T11:03:32;2.00;99.90
34985;DHT22;21190;58.750;17.004;2023-02-24T11:06:18;2.00;99.90
34985;DHT22;21190;58.750;17.004;2023-02-24T11:09:04;2.00;99.90
34985;DHT22;21190;58.750;17.004;2023-02-24T11:11:49;2.00;99.90
34985;DHT22;21190;58.750;17.004;2023-02-24T11:14:58;2.00;99.90
34985;DHT22;21190;58.750;17.004;2023-02-24T11:17:52;2.00;99.90
34985;DHT22;21190;58.750;17.004;2023-02-24T11:20:29;2.00;99.90
34985;DHT22;21190;58.750;17.004;2023-02-24T11:23:39;2.10;99.90
34985;DHT22;21190;58.750;17.004;2023-02-24T11:26:25;2.00;99.90
34985;DHT22;21190;58.750;17.004;2023-02-24T11:29:02;2.00;99.90
34985;DHT22;21190;58.750;17.004;2023-02-24T11:45:22;2.10;99.90
34985;DHT22;21190;58.750;17.004;2023-02-24T11:47:54;2.10;99.90
34985;DHT22;21190;58.750;17.004;2023-02-24T11:50:29;2.10;99.90
34985;DHT22;21190;58.750;17.004;2023-02-24T11:53:03;2.10;99.90
34985;DHT22;21190;58.750;17.004;2023-02-24T11:55:39;2.10;99.90
34985;DHT22;21190;58.750;17.004;2023-02-24T11:58:34;2.10;99.90
34985;DHT22;21190;58.750;17.004;2023-02-24T12:01:21;2.10;99.90
34985;DHT22;21190;58.750;17.004;2023-02-24T12:06:32;2.10;99.90
34985;DHT22;21190;58.750;17.004;2023-02-24T12:09:14;2.20;99.90
34985;DHT22;21190;58.750;17.004;2023-02-24T12:12:12;2.10;99.90
34985;DHT22;21190;58.750;17.004;2023-02-24T12:14:49;2.10;99.90
34985;DHT22;21190;58.750;17.004;2023-02-24T12:20:01;2.10;99.90
34985;DHT22;21190;58.750;17.004;2023-02-24T12:22:45;2.10;99.90
34985;DHT22;21190;58.750;17.004;2023-02-24T12:25:18;2.10;99.90
34985;DHT22;21190;58.750;17.004;2023-02-24T12:28:12;2.10;99.90
34985;DHT22;21190;58.750;17.004;2023-02-24T12:31:00;2.00;99.90
34985;DHT22;21190;58.750;17.004;2023-02-24T12:39:27;2.10;99.90
34985;DHT22;21190;58.750;17.004;2023-02-24T12:42:04;2.00;99.90
34985;DHT22;21190;58.750;17.004;2023-02-24T12:44:35;2.00;99.90
34985;DHT22;21190;58.750;17.004;2023-02-24T12:57:58;1.90;99.90
34985;DHT22;21190;58.750;17.004;2023-02-24T13:14:37;1.80;99.90
34985;DHT22;21190;58.750;17.004;2023-02-24T13:19:38;1.90;99.90
34985;DHT22;21190;58.750;17.004;2023-02-24T13:22:07;1.90;99.90
34985;DHT22;21190;58.750;17.004;2023-02-24T13:25:10;1.80;99.90
34985;DHT22;21190;58.750;17.004;2023-02-24T13:27:40;1.80;99.90
34985;DHT22;21190;58.750;17.004;2023-02-24T13:32:40;1.90;99.90
34985;DHT22;21190;58.750;17.004;2023-02-24T13:37:45;1.80;99.90
34985;DHT22;21190;58.750;17.004;2023-02-24T13:45:32;1.70;99.90
34985;DHT22;21190;58.750;17.004;2023-02-24T13:56:46;1.60;99.90
34985;DHT22;21190;58.750;17.004;2023-02-24T13:59:39;1.50;99.90
34985;DHT22;21190;58.750;17.004;2023-02-24T14:02:19;1.50;99.90
34985;DHT22;21190;58.750;17.004;2023-02-24T14:04:54;1.50;99.90
34985;DHT22;21190;58.750;17.004;2023-02-24T14:07:35;1.50;99.90
34985;DHT22;21190;58.750;17.004;2023-02-24T14:10:23;1.50;99.90
34985;DHT22;21190;58.750;17.004;2023-02-24T14:13:02;1.40;99.90
34985;DHT22;21190;58.750;17.004;2023-02-24T14:15:31;1.40;99.90
34985;DHT22;21190;58.750;17.004;2023-02-24T14:18:02;1.40;99.90
34985;DHT22;21190;58.750;17.004;2023-02-24T14:20:34;1.40;99.90
34985;DHT22;21190;58.750;17.004;2023-02-24T14:23:21;1.30;99.90
34985;DHT22;21190;58.750;17.004;2023-02-24T14:26:00;1.30;99.90
34985;DHT22;21190;58.750;17.004;2023-02-24T14:28:36;1.30;99.90
34985;DHT22;21190;58.750;17.004;2023-02-24T14:31:15;1.20;99.90
34985;DHT22;21190;58.750;17.004;2023-02-24T14:33:44;1.20;99.90
34985;DHT22;21190;58.750;17.004;2023-02-24T14:36:17;1.20;99.90
34985;DHT22;21190;58.750;17.004;2023-02-24T14:38:56;1.20;99.90
34985;DHT22;21190;58.750;17.004;2023-02-24T14:41:25;1.10;99.90
34985;DHT22;21190;58.750;17.004;2023-02-24T14:43:53;1.20;99.90
34985;DHT22;21190;58.750;17.004;2023-02-24T14:46:22;1.20;99.90
34985;DHT22;21190;58.750;17.004;2023-02-24T14:48:54;1.10;99.90
34985;DHT22;21190;58.750;17.004;2023-02-24T14:51:23;1.10;99.90
34985;DHT22;21190;58.750;17.004;2023-02-24T14:53:54;1.10;99.90
34985;DHT22;21190;58.750;17.004;2023-02-24T14:56:27;1.10;99.90
34985;DHT22;21190;58.750;17.004;2023-02-24T14:59:17;1.10;99.90
34985;DHT22;21190;58.750;17.004;2023-02-24T15:01:48;1.10;99.90
34985;DHT22;21190;58.750;17.004;2023-02-24T15:04:38;1.10;99.90
34985;DHT22;21190;58.750;17.004;2023-02-24T15:07:18;1.10;99.90
34985;DHT22;21190;58.750;17.004;2023-02-24T15:09:47;1.10;99.90
34985;DHT22;21190;58.750;17.004;2023-02-24T15:12:28;1.20;99.90
34985;DHT22;21190;58.750;17.004;2023-02-24T15:15:04;1.10;99.90
34985;DHT22;21190;58.750;17.004;2023-02-24T15:17:38;1.10;99.90
34985;DHT22;21190;58.750;17.004;2023-02-24T15:22:55;1.00;99.90
34985;DHT22;21190;58.750;17.004;2023-02-24T15:25:28;1.10;99.90
34985;DHT22;21190;58.750;17.004;2023-02-24T15:33:40;1.00;99.90
34985;DHT22;21190;58.750;17.004;2023-02-24T15:36:16;0.90;99.90
34985;DHT22;21190;58.750;17.004;2023-02-24T15:38:45;1.00;99.90
34985;DHT22;21190;58.750;17.004;2023-02-24T15:41:13;1.00;99.90
34985;DHT22;21190;58.750;17.004;2023-02-24T15:48:49;1.00;99.90
34985;DHT22;21190;58.750;17.004;2023-02-24T15:51:40;0.90;99.90
34985;DHT22;21190;58.750;17.004;2023-02-24T15:54:14;0.90;99.90
34985;DHT22;21190;58.750;17.004;2023-02-24T15:56:42;0.90;99.90
34985;DHT22;21190;58.750;17.004;2023-02-24T15:59:13;1.00;99.90
34985;DHT22;21190;58.750;17.004;2023-02-24T16:01:41;1.00;99.90
34985;DHT22;21190;58.750;17.004;2023-02-24T16:04:08;0.90;99.90
34985;DHT22;21190;58.750;17.004;2023-02-24T16:06:36;0.90;99.90
34985;DHT22;21190;58.750;17.004;2023-02-24T16:09:12;0.90;99.90
34985;DHT22;21190;58.750;17.004;2023-02-24T16:11:43;0.90;99.90
34985;DHT22;21190;58.750;17.004;2023-02-24T16:14:14;1.00;99.90
34985;DHT22;21190;58.750;17.004;2023-02-24T16:16:42;0.90;99.90
34985;DHT22;21190;58.750;17.004;2023-02-24T16:19:13;0.90;99.90
34985;DHT22;21190;58.750;17.004;2023-02-24T16:21:40;0.80;99.90
34985;DHT22;21190;58.750;17.004;2023-02-24T16:24:07;0.90;99.90
34985;DHT22;21190;58.750;17.004;2023-02-24T16:26:36;0.90;99.90
34985;DHT22;21190;58.750;17.004;2023-02-24T16:29:04;0.80;99.90
34985;DHT22;21190;58.750;17.004;2023-02-24T16:31:38;0.90;99.90
34985;DHT22;21190;58.750;17.004;2023-02-24T16:34:06;1.00;99.90
34985;DHT22;21190;58.750;17.004;2023-02-24T16:36:34;0.90;99.90
34985;DHT22;21190;58.750;17.004;2023-02-24T16:39:01;0.80;99.90
34985;DHT22;21190;58.750;17.004;2023-02-24T16:41:30;0.70;99.90
34985;DHT22;21190;58.750;17.004;2023-02-24T16:43:57;0.90;99.90
34985;DHT22;21190;58.750;17.004;2023-02-24T16:46:26;0.90;99.90
34985;DHT22;21190;58.750;17.004;2023-02-24T16:48:54;0.80;99.90
34985;DHT22;21190;58.750;17.004;2023-02-24T16:51:21;0.90;99.90
34985;DHT22;21190;58.750;17.004;2023-02-24T16:53:48;0.90;99.90
34985;DHT22;21190;58.750;17.004;2023-02-24T16:56:15;0.90;99.90
34985;DHT22;21190;58.750;17.004;2023-02-24T16:58:42;0.90;99.90
34985;DHT22;21190;58.750;17.004;2023-02-24T17:01:15;0.90;99.90
34985;DHT22;21190;58.750;17.004;2023-02-24T17:03:48;0.90;99.90
34985;DHT22;21190;58.750;17.004;2023-02-24T17:06:16;0.90;99.90
34985;DHT22;21190;58.750;17.004;2023-02-24T17:08:47;0.90;99.90
34985;DHT22;21190;58.750;17.004;2023-02-24T17:11:17;0.80;99.90
34985;DHT22;21190;58.750;17.004;2023-02-24T17:13:44;0.90;99.90
34985;DHT22;21190;58.750;17.004;2023-02-24T17:16:11;0.90;99.90
34985;DHT22;21190;58.750;17.004;2023-02-24T17:18:38;1.00;99.90
34985;DHT22;21190;58.750;17.004;2023-02-24T17:21:05;1.00;99.90
34985;DHT22;21190;58.750;17.004;2023-02-24T17:23:32;0.90;99.90
34985;DHT22;21190;58.750;17.004;2023-02-24T17:26:00;0.90;99.90
34985;DHT22;21190;58.750;17.004;2023-02-24T17:28:28;0.90;99.90
34985;DHT22;21190;58.750;17.004;2023-02-24T17:30:55;0.80;99.90
34985;DHT22;21190;58.750;17.004;2023-02-24T17:33:22;0.80;99.90
34985;DHT22;21190;58.750;17.004;2023-02-24T17:35:49;0.80;99.90
34985;DHT22;21190;58.750;17.004;2023-02-24T17:38:18;0.90;99.90
34985;DHT22;21190;58.750;17.004;2023-02-24T17:40:46;0.80;99.90
34985;DHT22;21190;58.750;17.004;2023-02-24T17:43:13;0.80;99.90
34985;DHT22;21190;58.750;17.004;2023-02-24T17:45:42;0.70;99.90
34985;DHT22;21190;58.750;17.004;2023-02-24T17:48:12;0.70;99.90
34985;DHT22;21190;58.750;17.004;2023-02-24T17:50:44;0.70;99.90
34985;DHT22;21190;58.750;17.004;2023-02-24T17:53:12;0.70;99.90
34985;DHT22;21190;58.750;17.004;2023-02-24T17:55:40;0.70;99.90
34985;DHT22;21190;58.750;17.004;2023-02-24T17:58:25;0.70;99.90
34985;DHT22;21190;58.750;17.004;2023-02-24T18:00:52;0.70;99.90
34985;DHT22;21190;58.750;17.004;2023-02-24T18:03:19;0.60;99.90
34985;DHT22;21190;58.750;17.004;2023-02-24T18:05:46;0.50;99.90
34985;DHT22;21190;58.750;17.004;2023-02-24T18:08:13;0.70;99.90
34985;DHT22;21190;58.750;17.004;2023-02-24T18:10:40;0.60;99.90
34985;DHT22;21190;58.750;17.004;2023-02-24T18:13:07;0.70;99.90
34985;DHT22;21190;58.750;17.004;2023-02-24T18:15:37;0.60;99.90
34985;DHT22;21190;58.750;17.004;2023-02-24T18:18:04;0.70;99.90
34985;DHT22;21190;58.750;17.004;2023-02-24T18:20:31;0.70;99.90
34985;DHT22;21190;58.750;17.004;2023-02-24T18:22:58;0.60;99.90
34985;DHT22;21190;58.750;17.004;2023-02-24T18:25:25;0.60;99.90
34985;DHT22;21190;58.750;17.004;2023-02-24T18:27:52;0.60;99.90
34985;DHT22;21190;58.750;17.004;2023-02-24T18:30:19;0.50;99.90
34985;DHT22;21190;58.750;17.004;2023-02-24T18:32:47;0.50;99.90
34985;DHT22;21190;58.750;17.004;2023-02-24T18:35:15;0.50;99.90
34985;DHT22;21190;58.750;17.004;2023-02-24T18:37:45;0.40;99.90
34985;DHT22;21190;58.750;17.004;2023-02-24T18:40:14;0.40;99.90
34985;DHT22;21190;58.750;17.004;2023-02-24T18:42:41;0.40;99.90